Time;durP1;ratioP1;P1;durP2;ratioP2;P2;SDS_P1;SDS_P2;PMS_P1;PMS_P2;Temp;Humidity;BMP_temperature;BMP_pressure;BME280_temperature;BME280_humidity;BME280_pressure;Samples;Min_cycle;Max_cycle;Signal;HPM_P1;HPM_P2
2022/11/16 00:00:59;;;;;;;7.73;6.90;;;11.60;99.90;;;;;;5016836;28;20486;-60
2022/11/16 00:03:27;;;;;;;7.27;6.57;;;11.60;99.90;;;;;;5016545;28;20435;-60
2022/11/16 00:05:56;;;;;;;8.90;6.43;;;11.70;99.90;;;;;;5016895;28;20828;-60
2022/11/16 00:08:24;;;;;;;5.67;5.10;;;11.70;99.90;;;;;;5015358;28;20582;-60
2022/11/16 00:10:51;;;;;;;6.87;6.17;;;11.70;99.90;;;;;;5016993;28;20784;-60
2022/11/16 00:13:18;;;;;;;5.67;5.10;;;11.60;99.90;;;;;;5016709;28;20451;-60
2022/11/16 00:15:56;;;;;;;5.93;5.43;;;11.60;99.90;;;;;;5016755;28;20473;-60
2022/11/16 00:18:23;;;;;;;7.00;5.60;;;11.60;99.90;;;;;;5016608;28;20427;-59
2022/11/16 00:20:50;;;;;;;4.97;4.50;;;11.60;99.90;;;;;;5016150;28;20482;-60
2022/11/16 00:23:18;;;;;;;6.37;5.77;;;11.60;99.90;;;;;;5016212;28;20451;-60
2022/11/16 00:25:45;;;;;;;6.30;5.70;;;11.60;99.90;;;;;;5016399;28;20817;-59
2022/11/16 00:28:12;;;;;;;5.33;4.80;;;11.60;99.90;;;;;;5016430;28;20596;-60
2022/11/16 00:30:40;;;;;;;4.80;4.30;;;11.60;99.90;;;;;;5016373;28;20447;-59
2022/11/16 00:33:13;;;;;;;5.07;4.57;;;11.60;99.90;;;;;;5016006;28;20934;-59
2022/11/16 00:35:40;;;;;;;5.40;4.70;;;11.60;99.90;;;;;;5016084;28;20569;-60
2022/11/16 00:38:07;;;;;;;7.57;4.97;;;11.60;99.90;;;;;;5015928;28;20447;-59
2022/11/16 00:40:34;;;;;;;5.33;4.20;;;11.60;99.90;;;;;;5016101;28;20574;-59
2022/11/16 00:43:01;;;;;;;5.60;4.90;;;11.60;99.90;;;;;;5016174;28;20461;-60
2022/11/16 00:45:29;;;;;;;7.20;5.43;;;11.60;99.90;;;;;;5016021;28;20467;-59
2022/11/16 00:47:56;;;;;;;5.40;4.90;;;11.50;99.90;;;;;;5015727;28;20530;-59
2022/11/16 00:50:24;;;;;;;4.83;4.30;;;11.50;99.90;;;;;;5015988;28;20806;-59
2022/11/16 00:52:52;;;;;;;5.60;4.90;;;11.50;99.90;;;;;;5016003;28;20473;-59
2022/11/16 00:55:19;;;;;;;4.63;4.23;;;11.50;99.90;;;;;;5015652;28;20478;-59
2022/11/16 00:57:46;;;;;;;5.20;4.67;;;11.40;99.90;;;;;;5015592;28;20823;-59
2022/11/16 01:00:15;;;;;;;5.43;4.93;;;11.40;99.90;;;;;;5015654;28;20569;-60
2022/11/16 01:02:42;;;;;;;4.73;4.30;;;11.40;99.90;;;;;;5015481;28;20451;-59
2022/11/16 01:05:10;;;;;;;6.60;5.20;;;11.40;99.90;;;;;;5015313;28;21018;-60
2022/11/16 01:07:40;;;;;;;6.67;4.97;;;11.30;99.90;;;;;;5015394;28;20483;-59
2022/11/16 01:10:11;;;;;;;7.27;5.10;;;11.30;99.90;;;;;;5015689;28;20436;-60
2022/11/16 01:12:38;;;;;;;5.27;4.60;;;11.30;99.90;;;;;;5015647;28;20442;-60
2022/11/16 01:15:07;;;;;;;5.37;4.87;;;11.30;99.90;;;;;;5015223;28;20462;-60
2022/11/16 01:17:35;;;;;;;8.00;5.20;;;11.30;99.90;;;;;;5016297;28;20454;-60
2022/11/16 01:20:03;;;;;;;5.50;4.77;;;11.30;99.90;;;;;;5015065;28;21025;-60
2022/11/16 01:22:30;;;;;;;5.63;5.10;;;11.30;99.90;;;;;;5015391;28;20869;-60
2022/11/16 01:24:58;;;;;;;4.97;4.50;;;11.30;99.90;;;;;;5015338;28;20470;-59
2022/11/16 01:27:26;;;;;;;7.00;4.93;;;11.20;99.90;;;;;;5015052;28;20454;-60
2022/11/16 01:29:53;;;;;;;5.20;4.70;;;11.20;99.90;;;;;;5015120;28;20494;-60
2022/11/16 01:32:20;;;;;;;6.63;4.63;;;11.30;99.90;;;;;;5015268;28;20486;-60
2022/11/16 01:34:48;;;;;;;5.27;4.83;;;11.20;99.90;;;;;;5015110;28;20566;-60
2022/11/16 01:37:15;;;;;;;6.20;4.90;;;11.20;99.90;;;;;;5014829;28;20501;-60
2022/11/16 01:39:42;;;;;;;4.87;4.47;;;11.20;99.90;;;;;;5015090;28;20938;-60
2022/11/16 01:42:17;;;;;;;5.43;4.93;;;11.20;99.90;;;;;;5015115;28;20493;-60
2022/11/16 01:45:03;;;;;;;6.63;5.17;;;11.20;99.90;;;;;;5014964;28;20466;-60
2022/11/16 01:47:30;;;;;;;5.50;4.60;;;11.20;99.90;;;;;;5015018;28;20434;-60
2022/11/16 01:50:03;;;;;;;4.97;4.27;;;11.20;99.90;;;;;;5014848;28;20447;-60
2022/11/16 01:52:33;;;;;;;6.20;4.50;;;11.20;99.90;;;;;;5014612;28;20933;-60
2022/11/16 01:55:02;;;;;;;4.87;4.37;;;11.20;99.90;;;;;;5014539;28;20981;-60
2022/11/16 01:57:35;;;;;;;6.93;4.53;;;11.20;99.90;;;;;;5014764;28;20858;-60
2022/11/16 02:00:09;;;;;;;5.70;5.20;;;11.20;99.90;;;;;;5014715;28;20508;-59
2022/11/16 02:02:36;;;;;;;4.90;4.50;;;11.20;99.90;;;;;;5014703;28;20446;-60
2022/11/16 02:05:04;;;;;;;4.50;4.10;;;11.20;99.90;;;;;;5014233;28;20483;-60
2022/11/16 02:10:50;;;;;;;4.73;4.33;;;11.20;99.90;;;;;;5014297;28;20403;-60
2022/11/16 02:13:34;;;;;;;5.27;4.77;;;11.20;99.90;;;;;;5014256;28;20467;-60
2022/11/16 02:16:12;;;;;;;5.03;4.20;;;11.20;99.90;;;;;;5014461;28;20466;-59
2022/11/16 02:18:50;;;;;;;4.33;3.90;;;11.20;99.90;;;;;;5014185;28;20428;-59
2022/11/16 02:21:27;;;;;;;6.23;4.10;;;11.20;99.90;;;;;;5014383;28;20471;-60
2022/11/16 02:24:36;;;;;;;4.63;4.13;;;11.20;99.90;;;;;;5014437;28;20521;-60
2022/11/16 02:27:33;;;;;;;7.30;4.03;;;11.20;99.90;;;;;;4994297;28;20536;-60
2022/11/16 02:30:04;;;;;;;5.03;4.60;;;11.10;99.90;;;;;;5014351;28;20424;-60
2022/11/16 02:32:37;;;;;;;4.83;4.00;;;11.10;99.90;;;;;;5014303;28;20420;-60
2022/11/16 02:35:10;;;;;;;5.50;5.07;;;11.20;99.90;;;;;;5014062;28;20529;-60
2022/11/16 02:37:41;;;;;;;5.43;4.93;;;11.20;99.90;;;;;;5014192;28;20455;-60
2022/11/16 02:40:12;;;;;;;5.60;4.90;;;11.20;99.90;;;;;;5013882;28;20518;-60
2022/11/16 02:42:44;;;;;;;5.13;4.20;;;11.10;99.90;;;;;;5013821;28;20489;-59
2022/11/16 02:45:18;;;;;;;5.10;4.53;;;11.10;99.90;;;;;;5014394;28;20466;-59
2022/11/16 02:47:48;;;;;;;5.40;4.07;;;11.10;99.90;;;;;;5013822;28;20446;-59
2022/11/16 02:50:20;;;;;;;6.43;3.90;;;11.10;99.90;;;;;;5014047;28;20447;-60
2022/11/16 02:52:47;;;;;;;5.13;4.63;;;11.10;99.90;;;;;;5014545;28;20431;-59
2022/11/16 02:55:14;;;;;;;7.53;3.83;;;11.10;99.90;;;;;;5013912;28;20553;-60
2022/11/16 02:57:48;;;;;;;4.90;4.17;;;11.00;99.90;;;;;;5013685;28;20443;-60
2022/11/16 03:00:22;;;;;;;4.50;4.10;;;11.00;99.90;;;;;;5014010;28;20485;-60
2022/11/16 03:02:59;;;;;;;5.30;4.10;;;11.10;99.90;;;;;;5014519;28;20427;-59
2022/11/16 03:05:34;;;;;;;5.13;4.63;;;11.10;99.90;;;;;;5014088;28;20482;-60
2022/11/16 03:08:08;;;;;;;5.10;4.57;;;11.20;99.90;;;;;;5013618;28;20478;-60
2022/11/16 03:13:24;;;;;;;5.10;4.60;;;11.20;99.90;;;;;;5013978;28;20876;-60
2022/11/16 03:15:56;;;;;;;4.70;3.60;;;11.30;99.90;;;;;;5013719;28;20475;-60
2022/11/16 03:18:26;;;;;;;4.00;3.40;;;11.30;99.90;;;;;;5013862;28;20423;-60
2022/11/16 03:21:02;;;;;;;4.30;3.80;;;11.30;99.90;;;;;;5013743;28;20463;-60
2022/11/16 03:23:29;;;;;;;3.77;3.47;;;11.30;99.90;;;;;;5015051;28;20519;-59
2022/11/16 03:25:58;;;;;;;3.53;3.30;;;11.30;99.90;;;;;;5017194;28;20470;-59
2022/11/16 03:28:34;;;;;;;4.47;3.40;;;11.30;99.90;;;;;;5017620;28;20490;-60
2022/11/16 03:31:09;;;;;;;4.00;3.40;;;11.30;99.90;;;;;;5017286;28;20431;-60
2022/11/16 03:33:40;;;;;;;4.43;4.03;;;11.30;99.90;;;;;;5017527;28;20466;-60
2022/11/16 03:36:13;;;;;;;4.60;3.57;;;11.30;99.90;;;;;;5017016;28;20479;-60
2022/11/16 03:38:42;;;;;;;5.40;3.07;;;11.30;99.90;;;;;;5017437;28;20932;-60
2022/11/16 03:41:11;;;;;;;6.20;3.77;;;11.30;99.90;;;;;;5017284;28;20841;-60
2022/11/16 03:43:40;;;;;;;3.90;3.60;;;11.30;99.90;;;;;;5017352;28;20789;-60
2022/11/16 03:46:09;;;;;;;3.90;3.60;;;11.40;99.90;;;;;;5017198;28;20462;-60
2022/11/16 03:48:37;;;;;;;4.23;3.83;;;11.30;99.90;;;;;;5016898;28;20454;-60
2022/11/16 03:51:05;;;;;;;6.30;3.63;;;11.30;99.90;;;;;;5017147;28;20557;-60
2022/11/16 03:53:32;;;;;;;4.60;4.03;;;11.30;99.90;;;;;;5016798;28;20451;-59
2022/11/16 03:55:59;;;;;;;4.47;3.33;;;11.20;99.90;;;;;;5016684;28;20477;-59
2022/11/16 03:58:26;;;;;;;3.67;3.37;;;11.20;99.90;;;;;;5017550;28;20481;-59
2022/11/16 04:00:54;;;;;;;5.27;4.17;;;11.20;99.90;;;;;;5016911;28;20487;-60
2022/11/16 04:03:22;;;;;;;5.63;4.40;;;11.20;99.90;;;;;;5016894;28;20541;-60
2022/11/16 04:25:18;;;;;;;3.23;2.97;;;11.40;99.90;;;;;;5016553;28;20565;-60
2022/11/16 04:37:47;;;;;;;3.70;3.37;;;11.30;99.90;;;;;;5016270;28;20898;-60
2022/11/16 04:38:50;;;;;;;3.93;3.50;;;11.30;99.90;;;;;;5016077;28;20907;-60
2022/11/16 04:43:59;;;;;;;3.70;3.40;;;11.30;99.90;;;;;;5015574;28;20431;-60
2022/11/16 04:49:10;;;;;;;5.30;3.27;;;11.30;99.90;;;;;;5015901;28;20399;-60
2022/11/16 04:51:39;;;;;;;3.90;3.50;;;11.30;99.90;;;;;;5015750;28;20446;-60
2022/11/16 04:54:06;;;;;;;3.63;3.33;;;11.30;99.90;;;;;;5015677;28;20933;-60
2022/11/16 04:56:34;;;;;;;3.77;3.23;;;11.30;99.90;;;;;;5015567;28;20550;-60
2022/11/16 04:59:01;;;;;;;4.10;3.80;;;11.40;99.90;;;;;;5015580;28;20447;-60
2022/11/16 05:04:09;;;;;;;4.00;3.70;;;11.40;99.90;;;;;;5015350;28;20439;-60
2022/11/16 05:06:38;;;;;;;4.07;3.77;;;11.40;99.90;;;;;;5015398;28;20495;-59
2022/11/16 05:09:05;;;;;;;4.07;3.67;;;11.30;99.90;;;;;;5015222;28;20518;-60
2022/11/16 05:11:33;;;;;;;3.87;3.53;;;11.40;99.90;;;;;;5015687;28;20443;-60
2022/11/16 05:14:00;;;;;;;4.73;4.23;;;11.40;99.90;;;;;;5015813;28;20542;-60
2022/11/16 05:16:28;;;;;;;6.53;4.07;;;11.40;99.90;;;;;;5015459;28;20471;-60
2022/11/16 05:21:36;;;;;;;4.23;3.87;;;11.40;99.90;;;;;;5014945;28;20819;-60
2022/11/16 05:27:07;;;;;;;3.60;3.30;;;11.30;99.90;;;;;;4993462;28;20446;-60
2022/11/16 05:29:35;;;;;;;4.10;3.57;;;11.40;99.90;;;;;;4993333;28;20444;-59
2022/11/16 05:32:03;;;;;;;4.13;3.80;;;11.40;99.90;;;;;;5003253;28;20443;-60
2022/11/16 05:34:30;;;;;;;4.23;3.83;;;11.40;99.90;;;;;;5014924;28;20560;-60
2022/11/16 05:36:58;;;;;;;4.00;3.70;;;11.40;99.90;;;;;;5014866;28;20578;-60
2022/11/16 05:39:27;;;;;;;4.60;4.00;;;11.40;99.90;;;;;;5014800;28;20450;-60
2022/11/16 05:41:54;;;;;;;4.30;3.90;;;11.40;99.90;;;;;;5014618;28;20479;-59
2022/11/16 05:44:21;;;;;;;4.07;3.77;;;11.40;99.90;;;;;;5014785;28;20802;-60
2022/11/16 05:46:49;;;;;;;4.57;3.70;;;11.40;99.90;;;;;;5014115;28;20450;-59
2022/11/16 05:49:16;;;;;;;3.70;3.40;;;11.40;99.90;;;;;;5014501;28;20537;-61
2022/11/16 05:51:46;;;;;;;4.73;4.30;;;11.40;99.90;;;;;;5014641;28;20483;-60
2022/11/16 05:54:17;;;;;;;3.50;3.20;;;11.40;99.90;;;;;;5014843;28;20878;-60
2022/11/16 05:56:46;;;;;;;4.63;3.77;;;11.30;99.90;;;;;;5014684;28;20471;-60
2022/11/16 05:59:14;;;;;;;5.10;3.87;;;11.30;99.90;;;;;;5014332;28;20443;-60
2022/11/16 06:01:42;;;;;;;5.93;4.67;;;11.40;99.90;;;;;;5014170;28;20479;-60
2022/11/16 06:04:09;;;;;;;3.97;3.60;;;11.30;99.90;;;;;;5014162;28;20455;-60
2022/11/16 06:06:37;;;;;;;4.17;3.87;;;11.30;99.90;;;;;;5014224;28;20478;-60
2022/11/16 06:09:05;;;;;;;5.50;4.37;;;11.20;99.90;;;;;;5014070;28;20489;-60
2022/11/16 06:11:32;;;;;;;5.57;4.33;;;11.20;99.90;;;;;;5014352;28;20474;-60
2022/11/16 06:14:01;;;;;;;4.30;3.90;;;11.20;99.90;;;;;;5014358;28;20860;-60
2022/11/16 06:16:28;;;;;;;4.03;3.70;;;11.10;99.90;;;;;;5014243;28;20470;-60
2022/11/16 06:18:55;;;;;;;9.70;8.70;;;11.10;99.90;;;;;;5013933;28;20530;-60
2022/11/16 06:21:23;;;;;;;4.40;4.00;;;11.10;99.90;;;;;;5014240;28;20541;-60
2022/11/16 06:23:50;;;;;;;4.40;4.00;;;11.10;99.90;;;;;;5013881;28;20453;-60
2022/11/16 06:26:17;;;;;;;5.23;3.77;;;11.10;99.90;;;;;;5014131;28;20471;-60
2022/11/16 06:28:49;;;;;;;4.80;4.40;;;11.20;99.90;;;;;;5013833;28;20455;-60
2022/11/16 06:31:18;;;;;;;4.20;3.60;;;11.20;99.90;;;;;;5013598;28;20811;-60
2022/11/16 06:33:45;;;;;;;4.80;4.40;;;11.30;99.90;;;;;;5013808;28;20462;-60
2022/11/16 06:36:12;;;;;;;6.03;3.73;;;11.20;99.90;;;;;;5013514;28;20502;-60
2022/11/16 06:38:40;;;;;;;4.27;3.87;;;11.20;99.90;;;;;;5013692;28;20914;-60
2022/11/16 06:41:07;;;;;;;4.80;4.10;;;11.20;99.90;;;;;;5013520;28;20451;-60
2022/11/16 06:43:35;;;;;;;6.93;4.20;;;11.30;99.90;;;;;;5013556;28;20482;-60
2022/11/16 06:46:02;;;;;;;4.73;4.33;;;11.30;99.90;;;;;;5013331;28;20467;-60
2022/11/16 06:48:32;;;;;;;4.87;4.43;;;11.30;99.90;;;;;;5013808;28;20462;-60
2022/11/16 06:50:59;;;;;;;4.90;4.50;;;11.30;99.90;;;;;;5013323;28;20458;-60
2022/11/16 06:53:26;;;;;;;5.23;4.77;;;11.30;99.90;;;;;;5013470;28;20930;-60
2022/11/16 06:55:54;;;;;;;4.87;4.37;;;11.40;99.90;;;;;;5013469;28;20525;-60
2022/11/16 06:58:21;;;;;;;6.13;4.20;;;11.40;99.90;;;;;;5018178;28;20451;-60
2022/11/16 07:00:49;;;;;;;4.07;3.73;;;11.40;99.90;;;;;;5018885;28;20538;-60
2022/11/16 07:03:16;;;;;;;5.40;4.70;;;11.50;99.90;;;;;;5019892;28;20490;-60
2022/11/16 07:05:45;;;;;;;7.10;3.07;;;11.40;99.90;;;;;;5020025;28;20479;-60
2022/11/16 07:08:12;;;;;;;4.50;3.77;;;11.40;99.90;;;;;;5019858;28;20482;-60
2022/11/16 07:10:40;;;;;;;4.10;3.60;;;11.50;99.90;;;;;;5019832;28;20957;-60
2022/11/16 07:13:07;;;;;;;5.70;3.83;;;11.50;99.90;;;;;;5020014;28;20446;-60
2022/11/16 07:15:35;;;;;;;4.37;3.97;;;11.50;99.90;;;;;;5019830;28;20965;-60
2022/11/16 07:18:06;;;;;;;5.77;3.77;;;11.50;99.90;;;;;;5020067;28;20446;-60
2022/11/16 07:20:34;;;;;;;34.10;5.33;;;11.50;99.90;;;;;;5019760;28;20488;-60
2022/11/16 07:23:05;;;;;;;4.17;3.60;;;11.50;99.90;;;;;;5019592;28;20482;-60
2022/11/16 07:25:33;;;;;;;4.10;3.50;;;11.50;99.90;;;;;;5019646;28;20499;-60
2022/11/16 07:28:00;;;;;;;4.00;3.30;;;11.40;99.90;;;;;;5019805;28;20485;-60
2022/11/16 07:30:28;;;;;;;4.47;4.07;;;11.50;99.90;;;;;;5019712;28;20478;-60
2022/11/16 07:32:59;;;;;;;4.30;3.00;;;11.50;99.90;;;;;;5019908;28;20774;-59
2022/11/16 07:35:26;;;;;;;8.53;3.43;;;11.50;99.90;;;;;;5019712;28;20487;-59
2022/11/16 07:37:54;;;;;;;3.63;3.10;;;11.50;99.90;;;;;;5019302;28;20454;-60
2022/11/16 07:40:23;;;;;;;5.47;3.57;;;11.50;99.90;;;;;;5019726;28;20451;-60
2022/11/16 07:42:50;;;;;;;3.17;2.20;;;11.50;99.90;;;;;;5019449;28;20505;-59
2022/11/16 07:45:17;;;;;;;2.63;2.43;;;11.50;99.90;;;;;;5018943;28;20981;-59
2022/11/16 07:47:46;;;;;;;3.87;2.73;;;11.50;99.90;;;;;;5019619;28;20481;-59
2022/11/16 07:50:14;;;;;;;2.70;2.50;;;11.60;99.90;;;;;;5019269;28;20509;-61
2022/11/16 07:52:45;;;;;;;3.30;2.73;;;11.70;99.90;;;;;;5019183;28;20968;-60
2022/11/16 07:55:12;;;;;;;2.53;2.20;;;11.80;99.90;;;;;;5020030;28;20497;-62
2022/11/16 07:57:41;;;;;;;3.37;3.13;;;11.80;99.90;;;;;;5019132;28;20451;-59
2022/11/16 08:00:10;;;;;;;2.60;2.40;;;11.80;99.90;;;;;;5019107;28;20454;-59
2022/11/16 08:02:37;;;;;;;2.90;1.90;;;11.80;99.90;;;;;;5018186;28;20544;-59
2022/11/16 08:05:05;;;;;;;2.50;2.20;;;11.80;99.90;;;;;;5019149;28;20487;-59
2022/11/16 08:07:34;;;;;;;2.80;2.60;;;11.80;99.90;;;;;;5018589;28;20973;-59
2022/11/16 08:10:01;;;;;;;2.50;2.10;;;11.90;99.90;;;;;;5016932;28;20432;-59
2022/11/16 08:12:28;;;;;;;3.80;2.07;;;11.90;99.90;;;;;;5015873;28;20534;-60
2022/11/16 08:14:57;;;;;;;2.10;1.93;;;11.90;99.90;;;;;;5015721;28;20503;-60
2022/11/16 08:17:24;;;;;;;3.40;2.43;;;11.80;99.90;;;;;;5015523;28;20501;-60
2022/11/16 08:19:53;;;;;;;2.63;2.37;;;11.90;99.90;;;;;;5015758;28;20486;-60
2022/11/16 08:22:20;;;;;;;2.10;1.97;;;12.00;99.90;;;;;;5015669;28;20493;-60
2022/11/16 08:24:48;;;;;;;2.97;2.50;;;12.00;99.90;;;;;;5015695;28;20555;-60
2022/11/16 08:27:16;;;;;;;2.23;1.80;;;12.10;99.90;;;;;;5015560;28;20455;-60
2022/11/16 08:29:43;;;;;;;5.17;2.03;;;12.20;99.90;;;;;;5016104;28;20453;-60
2022/11/16 08:32:12;;;;;;;2.80;2.03;;;;;;;;;;5015742;28;20530;-60
2022/11/16 08:34:39;;;;;;;2.63;2.00;;;12.40;99.90;;;;;;5015146;28;20459;-60
2022/11/16 08:37:07;;;;;;;4.23;2.30;;;12.50;99.90;;;;;;5015126;28;20495;-60
2022/11/16 08:39:34;;;;;;;4.13;1.77;;;12.60;99.90;;;;;;5015254;28;20447;-60
2022/11/16 08:42:01;;;;;;;2.17;1.97;;;12.60;99.90;;;;;;5015079;28;20451;-60
2022/11/16 08:44:29;;;;;;;2.60;1.70;;;12.50;99.90;;;;;;5015050;28;20800;-60
2022/11/16 08:46:56;;;;;;;2.60;2.00;;;12.40;99.90;;;;;;5015356;28;20451;-60
2022/11/16 08:49:25;;;;;;;2.33;2.13;;;12.40;99.90;;;;;;5015726;28;20450;-60
2022/11/16 08:51:52;;;;;;;6.43;2.17;;;12.50;99.90;;;;;;5015184;28;20960;-60
2022/11/16 08:54:20;;;;;;;2.23;1.80;;;12.50;99.90;;;;;;5014988;28;20447;-60
2022/11/16 08:56:47;;;;;;;1.60;1.50;;;12.50;99.90;;;;;;5015122;28;20941;-59
2022/11/16 08:59:15;;;;;;;4.10;2.60;;;12.50;99.90;;;;;;5015492;28;20789;-59
2022/11/16 09:01:42;;;;;;;2.83;1.83;;;12.40;99.90;;;;;;5015036;28;20931;-61
2022/11/16 09:04:09;;;;;;;4.40;2.00;;;12.50;99.90;;;;;;5014927;28;20486;-60
2022/11/16 09:06:38;;;;;;;2.47;1.93;;;12.60;99.90;;;;;;5015105;28;20475;-59
2022/11/16 09:09:05;;;;;;;2.13;1.93;;;12.60;99.90;;;;;;5014919;28;20474;-59
2022/11/16 09:11:33;;;;;;;4.63;2.60;;;12.60;99.90;;;;;;5015359;28;20800;-59
2022/11/16 09:14:00;;;;;;;3.47;2.20;;;12.70;99.90;;;;;;5014860;28;20447;-59
2022/11/16 09:16:28;;;;;;;2.43;1.83;;;12.60;99.90;;;;;;5014593;28;20467;-59
2022/11/16 09:18:55;;;;;;;2.43;1.40;;;12.70;99.90;;;;;;5014731;28;20455;-61
2022/11/16 09:21:24;;;;;;;3.53;2.00;;;12.80;99.90;;;;;;5014036;28;20455;-60
2022/11/16 09:23:54;;;;;;;5.03;2.23;;;12.80;99.90;;;;;;5014716;28;20985;-60
2022/11/16 09:26:22;;;;;;;3.43;2.40;;;12.90;99.90;;;;;;5014650;28;20481;-60
2022/11/16 09:28:55;;;;;;;4.30;2.10;;;13.00;99.90;;;;;;5014743;28;20906;-60
2022/11/16 09:31:23;;;;;;;2.00;1.80;;;12.80;99.90;;;;;;5014617;28;20446;-60
2022/11/16 09:33:51;;;;;;;3.67;2.23;;;12.90;99.90;;;;;;5014551;28;20505;-60
2022/11/16 09:36:19;;;;;;;4.20;1.83;;;12.90;99.90;;;;;;5014912;28;20550;-61
2022/11/16 09:38:46;;;;;;;5.70;1.83;;;12.80;99.90;;;;;;5014878;28;20535;-60
2022/11/16 09:41:35;;;;;;;1.97;1.57;;;12.80;99.90;;;;;;5014750;28;20451;-60
2022/11/16 09:44:12;;;;;;;7.13;1.97;;;12.80;99.90;;;;;;5014718;28;20471;-60
2022/11/16 09:46:43;;;;;;;4.37;1.70;;;12.80;99.90;;;;;;5015352;28;20862;-60
2022/11/16 09:49:14;;;;;;;6.30;2.17;;;12.70;99.90;;;;;;5014646;28;20486;-61
2022/11/16 09:51:43;;;;;;;2.90;2.30;;;12.80;99.90;;;;;;5014313;28;20439;-60
2022/11/16 09:54:16;;;;;;;3.07;2.10;;;12.90;99.90;;;;;;5014142;28;20452;-60
2022/11/16 09:56:47;;;;;;;2.90;1.70;;;12.90;99.90;;;;;;5014536;28;20459;-61
2022/11/16 09:59:22;;;;;;;3.97;2.10;;;13.00;99.90;;;;;;5014119;28;20481;-60
2022/11/16 10:01:54;;;;;;;2.60;1.80;;;13.10;99.90;;;;;;5015047;28;20489;-60
2022/11/16 10:04:27;;;;;;;2.40;1.90;;;13.30;99.90;;;;;;5013858;28;20872;-60
2022/11/16 10:06:59;;;;;;;3.70;2.03;;;13.30;99.90;;;;;;5013740;28;20967;-60
2022/11/16 10:09:28;;;;;;;2.37;1.67;;;13.40;99.90;;;;;;5013854;28;20582;-60
2022/11/16 10:12:14;;;;;;;2.90;1.93;;;13.40;99.90;;;;;;5013697;28;20509;-60
2022/11/16 10:15:15;;;;;;;2.63;2.00;;;13.40;99.90;;;;;;5013756;28;20467;-60
2022/11/16 10:17:58;;;;;;;2.33;1.40;;;13.30;99.90;;;;;;5013608;28;20450;-60
2022/11/16 10:20:55;;;;;;;1.77;1.60;;;13.30;99.90;;;;;;5013452;28;20431;-61
2022/11/16 10:23:31;;;;;;;3.40;1.83;;;13.30;99.90;;;;;;5007185;28;20521;-61
2022/11/16 10:26:07;;;;;;;2.60;1.77;;;13.40;99.90;;;;;;5013208;28;20471;-60
2022/11/16 10:28:56;;;;;;;2.87;1.73;;;13.70;99.90;;;;;;5013500;28;20475;-61
2022/11/16 10:31:38;;;;;;;4.27;1.87;;;13.70;99.90;;;;;;5013585;28;20910;-60
2022/11/16 10:34:08;;;;;;;7.63;1.70;;;14.50;99.90;;;;;;5014079;28;20505;-60
2022/11/16 10:36:37;;;;;;;2.33;1.57;;;16.20;99.90;;;;;;5013577;28;20893;-60
2022/11/16 10:39:13;;;;;;;1.97;1.67;;;18.80;99.90;;;;;;5013927;28;20482;-60
2022/11/16 10:41:44;;;;;;;2.70;1.63;;;18.70;99.90;;;;;;5013335;28;20493;-60
2022/11/16 10:44:19;;;;;;;2.53;1.50;;;19.50;99.90;;;;;;5013198;28;20467;-60
2022/11/16 10:46:57;;;;;;;1.50;1.30;;;20.10;99.90;;;;;;5013659;28;20459;-60
2022/11/16 10:49:32;;;;;;;2.20;2.00;;;20.10;99.90;;;;;;5013520;28;20518;-60
2022/11/16 10:51:59;;;;;;;1.87;1.47;;;20.00;99.90;;;;;;5013317;28;20850;-60
2022/11/16 10:54:27;;;;;;;3.80;1.67;;;;;;;;;;5013018;28;20447;-60
2022/11/16 10:57:02;;;;;;;2.07;1.53;;;20.70;99.90;;;;;;5013588;28;20566;-60
2022/11/16 10:59:41;;;;;;;2.80;1.60;;;19.70;99.90;;;;;;5013142;28;20432;-60
2022/11/16 11:02:31;;;;;;;1.57;1.43;;;19.40;99.90;;;;;;5013216;28;20957;-60
2022/11/16 11:05:04;;;;;;;2.83;1.37;;;19.00;99.90;;;;;;5012756;28;20494;-60
2022/11/16 11:07:33;;;;;;;2.13;1.40;;;19.00;99.90;;;;;;5012608;28;20450;-60
2022/11/16 11:10:01;;;;;;;2.93;1.80;;;19.10;99.90;;;;;;5013411;28;20435;-60
2022/11/16 11:12:37;;;;;;;2.70;1.57;;;19.30;99.90;;;;;;5013260;28;20451;-60
2022/11/16 11:15:30;;;;;;;3.10;1.60;;;19.20;99.90;;;;;;5012952;28;20546;-60
2022/11/16 11:18:19;;;;;;;1.50;1.40;;;20.00;99.90;;;;;;5013220;28;20462;-59
2022/11/16 11:20:49;;;;;;;4.30;2.00;;;19.60;99.90;;;;;;5013041;28;20477;-59
2022/11/16 11:23:19;;;;;;;2.13;1.93;;;18.40;99.90;;;;;;5012994;28;20487;-60
2022/11/16 11:25:53;;;;;;;2.27;1.67;;;17.40;99.90;;;;;;5012786;28;20529;-59
2022/11/16 11:28:25;;;;;;;3.70;2.00;;;16.90;99.90;;;;;;5013290;28;20423;-59
2022/11/16 11:31:02;;;;;;;3.10;1.80;;;17.40;99.90;;;;;;5013197;28;20443;-60
2022/11/16 11:33:33;;;;;;;2.23;1.30;;;17.40;99.90;;;;;;5013371;28;20423;-60
2022/11/16 11:36:04;;;;;;;2.37;1.40;;;16.90;99.90;;;;;;5012740;28;20530;-60
2022/11/16 11:38:32;;;;;;;1.57;1.40;;;16.80;99.90;;;;;;5012745;28;20440;-60
2022/11/16 11:41:03;;;;;;;1.70;1.57;;;16.30;99.90;;;;;;5012700;28;20878;-60
2022/11/16 11:43:33;;;;;;;1.70;1.30;;;;;;;;;;5012965;28;20521;-60
2022/11/16 11:46:08;;;;;;;4.13;1.40;;;15.50;99.90;;;;;;5016434;28;20486;-60
2022/11/16 11:48:46;;;;;;;2.57;1.70;;;15.50;99.90;;;;;;5017072;28;20446;-59
2022/11/16 11:51:21;;;;;;;1.90;1.40;;;15.60;99.90;;;;;;5016444;28;20466;-61
2022/11/16 11:53:56;;;;;;;2.77;1.50;;;15.60;99.90;;;;;;5015985;28;20427;-60
2022/11/16 11:56:24;;;;;;;1.57;1.47;;;15.60;99.90;;;;;;5016077;28;20502;-60
2022/11/16 11:58:52;;;;;;;4.07;1.83;;;15.70;99.90;;;;;;5016167;28;20482;-60
2022/11/16 12:01:49;;;;;;;1.80;1.50;;;15.70;99.90;;;;;;5016458;28;20769;-60
2022/11/16 12:04:48;;;;;;;2.00;1.30;;;15.50;99.90;;;;;;5015815;28;20558;-60
2022/11/16 12:07:27;;;;;;;2.57;1.80;;;15.40;99.90;;;;;;5016173;28;20489;-61
2022/11/16 12:10:04;;;;;;;3.70;2.00;;;15.20;99.90;;;;;;5016344;28;20415;-59
2022/11/16 12:12:42;;;;;;;2.50;1.57;;;15.20;99.90;;;;;;5016038;28;20467;-59
2022/11/16 12:15:37;;;;;;;1.80;1.43;;;15.20;99.90;;;;;;5015595;28;20513;-60
2022/11/16 12:18:18;;;;;;;3.13;1.60;;;15.30;99.90;;;;;;5006323;28;20546;-60
2022/11/16 12:20:56;;;;;;;1.73;1.60;;;15.30;99.90;;;;;;5015764;28;20969;-60
2022/11/16 12:23:52;;;;;;;1.50;1.40;;;15.40;99.90;;;;;;5016055;28;20495;-60
2022/11/16 12:26:25;;;;;;;3.40;1.20;;;15.60;99.90;;;;;;5008864;28;20741;-60
2022/11/16 12:29:07;;;;;;;2.40;1.40;;;15.60;99.90;;;;;;5015478;28;20478;-60
2022/11/16 12:31:49;;;;;;;2.50;1.30;;;15.70;99.90;;;;;;5015864;28;20459;-60
2022/11/16 12:34:27;;;;;;;1.70;1.60;;;15.70;99.90;;;;;;5015397;28;20879;-60
2022/11/16 12:37:03;;;;;;;3.00;1.50;;;15.60;99.90;;;;;;5015481;28;20485;-60
2022/11/16 12:39:35;;;;;;;1.67;1.50;;;15.40;99.90;;;;;;5015734;28;20501;-60
2022/11/16 12:42:20;;;;;;;1.90;1.53;;;15.30;99.90;;;;;;5016223;28;20519;-60
2022/11/16 12:45:17;;;;;;;2.17;1.40;;;15.00;99.90;;;;;;5015127;28;20565;-60
2022/11/16 12:48:04;;;;;;;1.53;1.40;;;15.10;99.90;;;;;;5015593;28;20847;-60
2022/11/16 12:50:50;;;;;;;1.50;1.40;;;15.40;99.90;;;;;;5015536;28;20459;-60
2022/11/16 12:53:38;;;;;;;1.80;1.33;;;15.30;99.90;;;;;;5015225;28;20430;-60
2022/11/16 12:56:14;;;;;;;3.07;1.40;;;15.30;99.90;;;;;;5014819;28;20467;-60
2022/11/16 12:59:17;;;;;;;2.30;1.37;;;15.40;99.90;;;;;;5016095;28;20467;-60
2022/11/16 13:01:54;;;;;;;2.03;1.40;;;15.50;99.90;;;;;;5015114;28;20739;-61
2022/11/16 13:04:24;;;;;;;4.27;1.80;;;15.70;99.90;;;;;;5015039;28;20584;-61
2022/11/16 13:06:58;;;;;;;1.47;1.20;;;15.80;99.90;;;;;;5015402;28;20470;-61
2022/11/16 13:09:29;;;;;;;2.13;1.67;;;16.10;99.90;;;;;;5014845;28;20537;-61
2022/11/16 13:12:00;;;;;;;12.10;1.40;;;16.10;99.90;;;;;;5014826;28;20922;-60
2022/11/16 13:14:33;;;;;;;2.47;1.33;;;16.30;99.90;;;;;;5014593;28;20906;-61
2022/11/16 13:17:02;;;;;;;2.40;1.33;;;16.40;99.90;;;;;;5014770;28;20460;-61
2022/11/16 13:19:30;;;;;;;4.33;1.20;;;16.10;99.90;;;;;;5015128;28;21041;-61
2022/11/16 13:22:13;;;;;;;2.00;1.80;;;16.50;99.90;;;;;;5015102;28;20517;-62
2022/11/16 13:24:46;;;;;;;3.03;1.40;;;17.00;99.90;;;;;;5014753;28;20471;-63
2022/11/16 13:27:32;;;;;;;1.50;1.40;;;17.20;99.90;;;;;;5014831;28;20459;-62
2022/11/16 13:30:05;;;;;;;2.40;1.67;;;17.00;99.90;;;;;;5014877;28;20432;-62
2022/11/16 13:32:45;;;;;;;2.23;1.50;;;16.50;99.90;;;;;;5014606;28;20474;-62
2022/11/16 13:35:15;;;;;;;3.43;1.20;;;16.20;99.90;;;;;;5014663;28;20523;-62
2022/11/16 13:37:48;;;;;;;3.10;1.50;;;16.00;99.90;;;;;;5014696;28;20838;-62
2022/11/16 13:40:30;;;;;;;3.53;1.50;;;15.70;99.90;;;;;;5014857;28;20539;-62
2022/11/16 13:43:14;;;;;;;3.20;1.40;;;15.60;99.90;;;;;;5014396;28;20459;-62
2022/11/16 13:45:44;;;;;;;3.17;1.90;;;15.30;99.90;;;;;;5014378;28;20490;-62
2022/11/16 13:48:19;;;;;;;2.90;1.33;;;15.30;99.90;;;;;;5014447;28;20438;-61
2022/11/16 13:50:52;;;;;;;3.07;1.20;;;15.10;99.90;;;;;;5014494;28;20430;-61
2022/11/16 13:53:31;;;;;;;2.20;1.60;;;15.00;99.90;;;;;;5014325;28;20446;-61
2022/11/16 13:56:00;;;;;;;4.13;1.70;;;14.90;99.90;;;;;;5014116;28;20981;-61
2022/11/16 13:58:29;;;;;;;1.60;1.43;;;14.90;99.90;;;;;;5013967;28;20446;-61